Time;durP1;ratioP1;P1;durP2;ratioP2;P2;SDS_P1;SDS_P2;PMS_P1;PMS_P2;Temp;Humidity;BMP_temperature;BMP_pressure;BME280_temperature;BME280_humidity;BME280_pressure;Samples;Min_cycle;Max_cycle;Signal;HPM_P1;HPM_P2
2023/08/02 00:00:37;;;;;;;2.37;1.90;;;17.60;99.90;;;;;;5038292;28;21137;-64
2023/08/02 00:03:03;;;;;;;2.23;1.90;;;17.70;99.90;;;;;;5031685;28;20203;-64
2023/08/02 00:05:28;;;;;;;3.23;1.90;;;17.60;99.90;;;;;;5028811;28;20233;-64
2023/08/02 00:07:54;;;;;;;2.17;1.77;;;17.60;99.90;;;;;;5038490;28;20202;-66
2023/08/02 00:10:20;;;;;;;2.43;1.70;;;17.60;99.90;;;;;;5025533;28;20203;-66
2023/08/02 00:12:45;;;;;;;3.57;2.47;;;17.60;99.90;;;;;;5026736;28;20600;-64
2023/08/02 00:15:11;;;;;;;3.60;2.50;;;17.50;99.90;;;;;;5041684;28;20214;-63
2023/08/02 00:17:37;;;;;;;4.53;2.60;;;17.50;99.90;;;;;;5032730;28;20567;-64
2023/08/02 00:20:03;;;;;;;4.97;3.10;;;17.50;99.90;;;;;;5038600;28;20192;-63
2023/08/02 00:22:29;;;;;;;9.47;4.53;;;17.60;99.90;;;;;;5033426;28;20286;-62
2023/08/02 00:24:54;;;;;;;8.27;5.93;;;17.50;99.90;;;;;;5033709;28;20605;-62
2023/08/02 00:27:20;;;;;;;8.27;7.40;;;17.50;99.90;;;;;;5029388;28;20261;-62
2023/08/02 00:29:45;;;;;;;9.87;8.00;;;17.40;99.90;;;;;;5034492;28;20178;-62
2023/08/02 00:32:11;;;;;;;12.23;8.87;;;17.40;99.90;;;;;;5026381;28;20765;-63
2023/08/02 00:34:36;;;;;;;16.83;11.17;;;17.30;99.90;;;;;;5029664;28;20190;-63
2023/08/02 00:37:02;;;;;;;16.77;11.20;;;17.50;99.90;;;;;;5033018;28;21001;-63
2023/08/02 00:39:28;;;;;;;10.47;9.27;;;17.40;99.90;;;;;;5032898;28;20187;-63
2023/08/02 00:41:53;;;;;;;13.70;10.03;;;17.40;99.90;;;;;;5033995;28;20195;-63
2023/08/02 00:44:18;;;;;;;13.40;8.57;;;17.30;99.90;;;;;;5027492;28;20184;-63
2023/08/02 00:46:44;;;;;;;12.07;7.77;;;17.40;99.90;;;;;;5035729;28;20202;-63
2023/08/02 00:49:10;;;;;;;8.53;6.90;;;17.30;99.90;;;;;;5051928;22;20262;-63
2023/08/02 00:51:36;;;;;;;9.10;7.10;;;17.30;99.90;;;;;;5025051;28;20716;-64
2023/08/02 00:54:02;;;;;;;8.20;5.17;;;17.20;99.90;;;;;;5023742;28;20211;-62
2023/08/02 00:56:31;;;;;;;7.47;6.10;;;17.20;99.90;;;;;;5024443;28;20222;-63
2023/08/02 00:58:56;;;;;;;7.33;4.50;;;17.30;99.90;;;;;;5016534;28;20208;-65
2023/08/02 01:01:22;;;;;;;6.73;4.80;;;17.30;99.90;;;;;;5025403;28;20677;-63
2023/08/02 01:03:48;;;;;;;5.77;4.03;;;17.30;99.90;;;;;;5017482;28;20219;-63
2023/08/02 01:06:37;;;;;;;6.63;4.63;;;17.30;99.90;;;;;;5025063;28;20761;-63
2023/08/02 01:09:25;;;;;;;6.17;4.60;;;17.30;99.90;;;;;;5020810;28;20204;-63
2023/08/02 01:12:01;;;;;;;4.00;3.53;;;17.20;99.90;;;;;;5025450;28;20359;-63
2023/08/02 01:14:28;;;;;;;6.23;4.40;;;17.20;99.90;;;;;;5012421;28;20238;-68
2023/08/02 01:16:54;;;;;;;5.23;3.13;;;17.20;99.90;;;;;;5025198;28;20195;-70
2023/08/02 01:19:20;;;;;;;4.80;2.83;;;17.20;99.90;;;;;;5022810;28;20211;-67
2023/08/02 01:21:46;;;;;;;6.20;3.33;;;17.20;99.90;;;;;;5025457;28;20604;-70
2023/08/02 01:24:12;;;;;;;6.10;3.23;;;17.20;99.90;;;;;;5023278;28;20219;-65
2023/08/02 01:26:42;;;;;;;5.13;2.80;;;17.30;99.90;;;;;;5025320;28;20200;-57
2023/08/02 01:29:12;;;;;;;7.03;3.40;;;17.20;99.90;;;;;;5023573;28;20199;-61
2023/08/02 01:31:39;;;;;;;5.97;2.57;;;17.20;99.90;;;;;;5025414;28;20215;-60
2023/08/02 01:34:05;;;;;;;7.43;2.57;;;17.30;99.90;;;;;;5016658;28;20231;-60
2023/08/02 01:36:32;;;;;;;4.73;2.50;;;17.30;99.90;;;;;;5013957;28;20247;-60
2023/08/02 01:38:57;;;;;;;5.57;2.40;;;17.30;99.90;;;;;;5014032;28;20252;-60
2023/08/02 01:41:23;;;;;;;3.50;1.80;;;17.30;99.90;;;;;;5024215;28;21353;-61
2023/08/02 01:43:48;;;;;;;2.50;2.23;;;17.30;99.90;;;;;;5018269;28;20245;-60
2023/08/02 01:46:14;;;;;;;3.53;2.43;;;17.30;99.90;;;;;;5024927;28;20204;-59
2023/08/02 01:48:39;;;;;;;3.73;1.87;;;17.30;99.90;;;;;;5022808;28;20856;-59
2023/08/02 01:51:05;;;;;;;5.13;2.30;;;17.20;99.90;;;;;;5024626;28;20868;-59
2023/08/02 01:53:30;;;;;;;4.33;2.50;;;17.20;99.90;;;;;;5022639;28;20212;-59
2023/08/02 01:55:56;;;;;;;5.53;2.10;;;17.20;99.90;;;;;;5024554;28;20692;-60
2023/08/02 01:58:22;;;;;;;3.33;1.90;;;17.30;99.90;;;;;;5022486;28;20206;-60
2023/08/02 02:00:47;;;;;;;6.23;1.80;;;17.30;99.90;;;;;;5024429;28;20258;-60
2023/08/02 02:03:13;;;;;;;2.30;1.93;;;17.20;99.90;;;;;;5015251;28;20212;-60
2023/08/02 02:05:38;;;;;;;5.03;2.43;;;17.30;99.90;;;;;;5024103;28;20249;-61
2023/08/02 02:08:03;;;;;;;3.53;1.90;;;17.30;99.90;;;;;;5022592;28;20250;-61
2023/08/02 02:10:29;;;;;;;5.73;2.03;;;17.30;99.90;;;;;;5023878;28;20306;-67
2023/08/02 02:12:55;;;;;;;4.63;2.47;;;17.30;99.90;;;;;;5018855;28;20857;-60
2023/08/02 02:15:20;;;;;;;6.83;2.27;;;17.30;99.90;;;;;;5020689;28;20214;-59
2023/08/02 02:17:46;;;;;;;4.40;2.33;;;17.40;99.90;;;;;;5022315;28;20312;-61
2023/08/02 02:20:12;;;;;;;3.00;1.80;;;17.30;99.90;;;;;;5024507;28;20176;-58
2023/08/02 02:22:38;;;;;;;2.60;2.10;;;17.40;99.90;;;;;;5019687;28;20199;-59
2023/08/02 02:25:04;;;;;;;2.30;2.10;;;17.30;99.90;;;;;;5023522;28;20436;-58
2023/08/02 02:27:29;;;;;;;5.73;2.07;;;17.30;99.90;;;;;;5020703;28;20207;-59
2023/08/02 02:29:55;;;;;;;2.33;2.00;;;17.20;99.90;;;;;;5022802;28;20253;-59
2023/08/02 02:32:20;;;;;;;3.70;2.17;;;17.30;99.90;;;;;;5014831;28;20235;-59
2023/08/02 02:34:46;;;;;;;4.13;2.27;;;17.10;99.90;;;;;;5024928;28;20206;-58
2023/08/02 02:37:11;;;;;;;3.00;2.27;;;17.10;99.90;;;;;;5019290;28;20204;-58
2023/08/02 02:39:37;;;;;;;4.80;2.93;;;17.20;99.90;;;;;;5006669;28;20180;-59
2023/08/02 02:42:02;;;;;;;4.60;2.13;;;17.20;99.90;;;;;;5018780;28;20199;-60
2023/08/02 02:44:44;;;;;;;5.20;2.37;;;17.20;99.90;;;;;;5013751;28;20196;-60
2023/08/02 02:47:11;;;;;;;3.60;2.23;;;17.20;99.90;;;;;;5021228;28;20235;-59
2023/08/02 02:49:37;;;;;;;3.13;1.80;;;17.20;99.90;;;;;;5022279;28;20246;-59
2023/08/02 02:52:02;;;;;;;3.13;2.30;;;17.10;99.90;;;;;;5021391;28;20223;-59
2023/08/02 02:54:28;;;;;;;6.73;2.60;;;17.10;99.90;;;;;;5022643;28;20540;-59
2023/08/02 02:56:53;;;;;;;5.63;3.20;;;17.00;99.90;;;;;;5006841;28;20214;-59
2023/08/02 02:59:19;;;;;;;4.53;2.53;;;17.10;99.90;;;;;;5023212;28;20245;-60
2023/08/02 03:01:45;;;;;;;4.57;2.40;;;17.00;99.90;;;;;;5021168;28;20203;-60
2023/08/02 03:04:10;;;;;;;2.70;1.93;;;17.10;99.90;;;;;;5023653;28;20245;-59
2023/08/02 03:06:36;;;;;;;3.27;1.97;;;17.00;99.90;;;;;;5023369;28;20199;-60
2023/08/02 03:09:02;;;;;;;5.83;2.20;;;17.00;99.90;;;;;;5021373;28;20213;-59
2023/08/02 03:11:27;;;;;;;2.67;2.07;;;17.00;99.90;;;;;;5014991;28;20641;-60
2023/08/02 03:13:53;;;;;;;5.27;2.50;;;17.00;99.90;;;;;;5012427;28;20211;-60
2023/08/02 03:16:18;;;;;;;5.40;2.50;;;16.90;99.90;;;;;;5022793;28;20602;-60
2023/08/02 03:18:44;;;;;;;3.23;2.00;;;16.90;99.90;;;;;;5003514;28;20688;-59
2023/08/02 03:21:09;;;;;;;3.83;2.40;;;16.90;99.90;;;;;;5022240;28;20278;-58
2023/08/02 03:23:35;;;;;;;2.47;2.13;;;16.90;99.90;;;;;;5021457;28;20203;-59
2023/08/02 03:26:01;;;;;;;4.80;2.37;;;17.00;99.90;;;;;;5022684;28;20846;-59
2023/08/02 03:28:26;;;;;;;2.90;2.03;;;17.00;99.90;;;;;;5008891;28;20226;-60
2023/08/02 03:30:54;;;;;;;3.13;2.53;;;16.90;99.90;;;;;;5022414;28;20584;-59
2023/08/02 03:33:20;;;;;;;8.07;2.40;;;16.90;99.90;;;;;;5019804;28;20261;-60
2023/08/02 03:35:45;;;;;;;3.00;2.33;;;16.90;99.90;;;;;;5021588;28;20195;-59
2023/08/02 03:38:10;;;;;;;6.17;2.67;;;16.90;99.90;;;;;;5020859;28;20207;-59
2023/08/02 03:40:36;;;;;;;5.73;2.10;;;16.90;99.90;;;;;;5022587;28;20218;-60
2023/08/02 03:43:01;;;;;;;5.43;2.43;;;17.00;99.90;;;;;;5020702;28;20208;-59
2023/08/02 03:45:27;;;;;;;4.23;2.43;;;17.00;99.90;;;;;;5017743;28;20222;-57
2023/08/02 03:47:52;;;;;;;3.20;2.53;;;17.00;99.90;;;;;;5020488;28;20223;-61
2023/08/02 03:50:18;;;;;;;5.43;2.40;;;16.90;99.90;;;;;;5022987;28;20587;-61
2023/08/02 03:52:43;;;;;;;4.53;2.53;;;17.00;99.90;;;;;;5012971;28;20223;-61
2023/08/02 03:55:09;;;;;;;4.07;2.37;;;16.80;99.90;;;;;;5020718;28;20645;-59
2023/08/02 03:57:34;;;;;;;3.47;2.60;;;16.80;99.90;;;;;;5020701;28;20218;-58
2023/08/02 04:00:00;;;;;;;2.60;2.40;;;16.90;99.90;;;;;;5008232;28;20195;-62
2023/08/02 04:02:25;;;;;;;5.00;2.77;;;16.90;99.90;;;;;;5018710;28;20211;-59
2023/08/02 04:04:51;;;;;;;4.27;2.80;;;16.90;99.90;;;;;;5022656;28;20183;-59
2023/08/02 04:07:16;;;;;;;5.80;3.43;;;16.90;99.90;;;;;;5020935;28;20310;-59
2023/08/02 04:09:42;;;;;;;2.87;2.10;;;16.90;99.90;;;;;;5022399;28;20179;-59
2023/08/02 04:12:07;;;;;;;4.30;2.80;;;16.90;99.90;;;;;;5018139;28;20999;-59
2023/08/02 04:14:33;;;;;;;4.40;3.40;;;16.90;99.90;;;;;;5015934;28;20210;-59
2023/08/02 04:16:58;;;;;;;5.60;3.13;;;16.90;99.90;;;;;;5020597;28;20222;-61
2023/08/02 04:19:25;;;;;;;8.27;3.23;;;16.90;99.90;;;;;;5021010;28;20268;-60
2023/08/02 04:21:50;;;;;;;2.83;2.67;;;16.90;99.90;;;;;;5015985;28;20199;-58
2023/08/02 04:24:16;;;;;;;4.97;3.30;;;16.90;99.90;;;;;;5019634;28;20194;-62
2023/08/02 04:26:41;;;;;;;5.27;2.53;;;16.80;99.90;;;;;;5020047;28;20210;-61
2023/08/02 04:29:07;;;;;;;4.30;3.33;;;16.90;99.90;;;;;;5010164;28;20192;-61
2023/08/02 04:31:32;;;;;;;3.67;2.80;;;16.90;99.90;;;;;;5021750;28;20223;-62
2023/08/02 04:33:58;;;;;;;2.73;2.53;;;16.90;99.90;;;;;;5020342;28;20551;-61
2023/08/02 04:36:23;;;;;;;4.80;3.20;;;16.80;99.90;;;;;;5022054;28;20538;-58
2023/08/02 04:38:52;;;;;;;4.93;2.93;;;16.90;99.90;;;;;;5020708;28;20195;-58
2023/08/02 04:41:18;;;;;;;3.30;3.00;;;16.90;99.90;;;;;;5022249;28;20229;-58
2023/08/02 04:43:45;;;;;;;3.20;2.67;;;16.90;99.90;;;;;;5017653;28;20211;-58
2023/08/02 04:46:12;;;;;;;2.83;2.47;;;16.90;99.90;;;;;;5021735;28;20257;-58
2023/08/02 04:48:37;;;;;;;3.83;2.80;;;17.00;99.90;;;;;;5011541;28;20224;-58
2023/08/02 04:51:07;;;;;;;3.90;2.80;;;17.00;99.90;;;;;;5021223;28;20577;-58
2023/08/02 04:53:33;;;;;;;3.40;2.83;;;17.00;99.90;;;;;;5020239;28;20311;-58
2023/08/02 04:55:58;;;;;;;4.87;3.33;;;17.00;99.90;;;;;;5021927;28;20347;-58
2023/08/02 04:58:24;;;;;;;2.73;2.40;;;17.00;99.90;;;;;;5018512;28;20273;-57
2023/08/02 05:00:49;;;;;;;4.53;3.57;;;17.00;99.90;;;;;;5021831;28;20250;-57
2023/08/02 05:03:15;;;;;;;5.17;3.23;;;17.00;99.90;;;;;;5009893;28;20203;-57
2023/08/02 05:05:40;;;;;;;6.90;3.53;;;17.00;99.90;;;;;;5021783;28;20992;-58
2023/08/02 05:08:06;;;;;;;4.80;3.13;;;16.90;99.90;;;;;;5018499;28;20207;-58
2023/08/02 05:10:31;;;;;;;3.93;3.13;;;16.90;99.90;;;;;;5021252;28;20207;-58
2023/08/02 05:12:57;;;;;;;7.43;3.33;;;16.90;99.90;;;;;;5016341;28;20224;-58
2023/08/02 05:15:22;;;;;;;5.13;3.33;;;17.00;99.90;;;;;;5020970;28;20191;-58
2023/08/02 05:17:48;;;;;;;8.57;3.17;;;17.00;99.90;;;;;;5019517;28;20223;-58
2023/08/02 05:20:13;;;;;;;4.37;3.00;;;17.00;99.90;;;;;;5021106;28;20211;-58
2023/08/02 05:22:39;;;;;;;3.10;2.63;;;17.00;99.90;;;;;;5020034;28;20227;-58
2023/08/02 05:25:06;;;;;;;5.53;3.07;;;17.00;99.90;;;;;;5022056;28;20230;-59
2023/08/02 05:27:31;;;;;;;3.00;2.60;;;17.00;99.90;;;;;;5018115;28;20303;-58
2023/08/02 05:29:57;;;;;;;4.30;2.87;;;17.00;99.90;;;;;;5021701;28;20255;-62
2023/08/02 05:32:22;;;;;;;4.37;2.67;;;17.00;99.90;;;;;;5017258;28;20238;-63
2023/08/02 05:34:47;;;;;;;4.00;2.93;;;17.10;99.90;;;;;;5007679;28;20192;-63
2023/08/02 05:37:13;;;;;;;4.60;3.13;;;17.10;99.90;;;;;;5023258;28;20681;-63
2023/08/02 05:39:39;;;;;;;4.43;2.77;;;17.10;99.90;;;;;;5025150;28;20546;-63
2023/08/02 05:42:04;;;;;;;7.43;2.97;;;17.20;99.90;;;;;;5016284;22;20278;-62
2023/08/02 05:44:30;;;;;;;4.40;3.20;;;17.30;99.90;;;;;;5037822;28;20191;-63
2023/08/02 05:46:56;;;;;;;3.73;3.03;;;17.30;99.90;;;;;;5040920;28;20245;-59
2023/08/02 05:49:21;;;;;;;3.17;2.87;;;17.30;99.90;;;;;;5040627;28;20199;-58
2023/08/02 05:51:47;;;;;;;4.43;2.47;;;17.30;99.90;;;;;;5045338;28;20219;-58
2023/08/02 05:54:14;;;;;;;5.63;3.17;;;17.40;99.90;;;;;;5044752;28;20197;-59
2023/08/02 05:56:39;;;;;;;5.73;2.80;;;17.40;99.90;;;;;;5041079;28;20673;-58
2023/08/02 05:59:06;;;;;;;8.43;2.50;;;17.40;99.90;;;;;;5043286;28;20191;-58
2023/08/02 06:01:31;;;;;;;6.27;3.07;;;17.50;99.90;;;;;;5039048;28;20204;-58
2023/08/02 06:03:56;;;;;;;5.33;2.80;;;17.50;99.90;;;;;;5033769;28;20187;-59
2023/08/02 06:06:22;;;;;;;3.00;2.70;;;17.50;99.90;;;;;;5041946;28;20610;-58
2023/08/02 06:08:47;;;;;;;2.77;2.47;;;17.40;99.90;;;;;;5043198;28;20187;-58
2023/08/02 06:11:13;;;;;;;4.77;2.63;;;17.40;99.90;;;;;;5031872;28;20220;-58
2023/08/02 06:13:38;;;;;;;4.40;2.93;;;17.40;99.90;;;;;;5040404;28;20240;-58
2023/08/02 06:16:04;;;;;;;2.90;2.60;;;17.40;99.90;;;;;;5042574;28;20712;-58
2023/08/02 06:18:30;;;;;;;2.70;2.50;;;17.40;99.90;;;;;;5044375;28;20242;-62
2023/08/02 06:20:55;;;;;;;5.63;2.60;;;17.50;99.90;;;;;;5042149;28;20677;-58
2023/08/02 06:23:20;;;;;;;3.23;2.63;;;17.60;99.90;;;;;;5044170;28;20199;-61
2023/08/02 06:25:46;;;;;;;7.20;3.07;;;17.60;99.90;;;;;;5039641;28;20285;-61
2023/08/02 06:28:11;;;;;;;4.77;2.63;;;17.70;99.90;;;;;;5042402;28;20191;-60
2023/08/02 06:30:37;;;;;;;4.40;2.93;;;17.70;99.90;;;;;;5041633;28;20591;-60
2023/08/02 06:33:03;;;;;;;3.70;2.53;;;17.70;99.90;;;;;;5041237;28;20284;-58
2023/08/02 06:35:28;;;;;;;3.33;2.70;;;17.70;99.90;;;;;;5039356;28;20198;-58
2023/08/02 06:37:53;;;;;;;2.77;2.40;;;17.80;99.90;;;;;;5041652;28;20210;-59
2023/08/02 06:40:19;;;;;;;2.37;2.00;;;17.80;99.90;;;;;;5030439;28;20890;-59
2023/08/02 06:42:45;;;;;;;3.70;2.07;;;17.90;99.90;;;;;;5032577;28;20239;-62
2023/08/02 06:45:10;;;;;;;3.20;2.23;;;18.00;99.90;;;;;;5039575;28;20192;-65
2023/08/02 06:47:36;;;;;;;5.00;2.87;;;18.00;99.90;;;;;;5035087;28;20326;-72
2023/08/02 06:50:02;;;;;;;5.20;3.07;;;18.10;99.90;;;;;;5043241;28;20191;-71
2023/08/02 06:52:30;;;;;;;4.60;2.50;;;18.10;99.90;;;;;;5033872;28;20369;-72
2023/08/02 06:54:55;;;;;;;3.90;2.30;;;18.30;99.90;;;;;;5049050;28;20178;-71
2023/08/02 06:57:22;;;;;;;3.83;2.63;;;18.30;99.90;;;;;;5045152;28;20206;-71
2023/08/02 06:59:52;;;;;;;3.33;2.23;;;18.50;99.90;;;;;;5038473;28;20270;-69
2023/08/02 07:02:18;;;;;;;4.00;2.43;;;18.50;99.90;;;;;;5031479;28;20220;-65
2023/08/02 07:04:43;;;;;;;4.67;2.30;;;18.60;99.90;;;;;;5038022;28;20281;-65
2023/08/02 07:07:09;;;;;;;3.50;2.50;;;18.60;99.90;;;;;;5039606;28;20199;-65
2023/08/02 07:09:34;;;;;;;4.53;2.00;;;18.50;99.90;;;;;;5035963;28;20260;-67
2023/08/02 07:12:00;;;;;;;5.50;2.47;;;18.70;99.90;;;;;;5035293;28;20385;-67
2023/08/02 07:14:26;;;;;;;3.17;2.30;;;18.70;99.90;;;;;;5036229;28;20199;-67
2023/08/02 07:16:51;;;;;;;3.00;2.33;;;18.80;99.90;;;;;;5082751;22;20798;-67
2023/08/02 07:19:17;;;;;;;5.90;2.67;;;18.80;99.90;;;;;;5033321;28;20293;-68
2023/08/02 07:21:42;;;;;;;3.83;2.33;;;18.80;99.90;;;;;;5036777;28;20638;-67
2023/08/02 07:24:08;;;;;;;3.87;2.23;;;18.90;99.90;;;;;;5028507;28;20194;-71
2023/08/02 07:26:33;;;;;;;5.03;2.23;;;18.90;99.90;;;;;;5033406;28;20186;-61
2023/08/02 07:28:59;;;;;;;4.53;3.00;;;19.10;99.90;;;;;;5033625;28;20690;-60
2023/08/02 07:31:24;;;;;;;7.20;2.37;;;19.20;99.90;;;;;;5037214;28;20695;-62
2023/08/02 07:33:50;;;;;;;2.83;1.80;;;19.20;99.90;;;;;;5035424;28;20204;-68
2023/08/02 07:36:17;;;;;;;4.73;2.40;;;19.20;99.90;;;;;;5037420;28;20247;-60
2023/08/02 07:38:44;;;;;;;5.20;2.40;;;19.30;99.90;;;;;;5038330;28;20313;-70
2023/08/02 07:41:10;;;;;;;4.43;2.23;;;19.30;99.90;;;;;;5028710;28;20214;-66
2023/08/02 07:43:35;;;;;;;4.07;2.03;;;19.30;99.90;;;;;;5036082;28;20645;-66
2023/08/02 07:46:01;;;;;;;8.70;2.17;;;19.40;99.90;;;;;;5039045;28;20196;-60
2023/08/02 07:48:26;;;;;;;2.00;1.90;;;19.50;99.90;;;;;;5037072;28;20226;-61
2023/08/02 07:50:52;;;;;;;6.37;2.67;;;19.60;99.90;;;;;;5041930;28;20347;-61
2023/08/02 07:53:17;;;;;;;5.90;2.30;;;19.50;99.90;;;;;;5036822;28;20921;-64
2023/08/02 07:55:43;;;;;;;3.20;1.83;;;19.50;99.90;;;;;;5037987;28;20240;-65
2023/08/02 07:58:08;;;;;;;2.00;1.53;;;19.70;99.90;;;;;;5035847;28;20198;-74
2023/08/02 08:00:34;;;;;;;6.87;2.33;;;19.70;99.90;;;;;;5037690;28;20649;-63
2023/08/02 08:02:59;;;;;;;3.70;1.90;;;19.80;99.90;;;;;;5037057;28;20230;-74
2023/08/02 08:05:27;;;;;;;7.37;1.80;;;19.80;99.90;;;;;;5038197;28;20186;-65
2023/08/02 08:07:53;;;;;;;1.70;1.60;;;19.70;99.90;;;;;;5031682;28;20213;-66
2023/08/02 08:10:18;;;;;;;8.33;2.33;;;19.80;99.90;;;;;;5041169;28;20281;-66
2023/08/02 08:12:44;;;;;;;3.73;1.63;;;19.90;99.90;;;;;;5034246;28;20872;-66
2023/08/02 08:15:09;;;;;;;5.27;2.20;;;19.90;99.90;;;;;;5034769;28;20281;-67
2023/08/02 08:17:35;;;;;;;3.87;1.80;;;20.00;99.90;;;;;;5033633;28;20682;-66
2023/08/02 08:20:04;;;;;;;1.47;1.37;;;19.90;99.90;;;;;;5038959;28;20206;-66
2023/08/02 08:22:29;;;;;;;3.33;2.20;;;20.00;99.90;;;;;;5031321;28;20222;-68
2023/08/02 08:24:55;;;;;;;3.77;1.50;;;20.00;99.90;;;;;;5026326;28;20498;-68
2023/08/02 08:27:21;;;;;;;2.47;1.33;;;20.00;99.90;;;;;;5036382;28;20310;-69
2023/08/02 08:29:47;;;;;;;4.13;1.87;;;20.00;99.90;;;;;;5035445;28;20946;-68
2023/08/02 08:32:12;;;;;;;2.73;1.80;;;19.90;99.90;;;;;;5035191;28;20863;-71
2023/08/02 08:34:38;;;;;;;3.13;1.70;;;19.90;99.90;;;;;;5037212;28;20186;-71
2023/08/02 08:37:03;;;;;;;1.93;1.80;;;20.10;99.90;;;;;;5024720;28;20281;-69
2023/08/02 08:39:29;;;;;;;2.00;1.77;;;20.10;99.90;;;;;;5036819;28;20187;-67
2023/08/02 08:41:56;;;;;;;3.23;1.77;;;20.20;99.90;;;;;;5032325;28;20286;-68
2023/08/02 08:44:22;;;;;;;2.60;1.30;;;20.40;99.90;;;;;;5022544;28;20184;-72
2023/08/02 08:46:49;;;;;;;2.67;1.70;;;20.40;99.90;;;;;;5036406;28;20257;-67
2023/08/02 08:49:14;;;;;;;3.73;1.50;;;20.30;99.90;;;;;;5036384;28;20187;-70
2023/08/02 08:51:45;;;;;;;4.07;1.70;;;20.30;99.90;;;;;;5034904;28;20689;-71
2023/08/02 08:54:23;;;;;;;1.20;1.03;;;20.20;99.90;;;;;;5037012;28;20179;-73
2023/08/02 08:56:49;;;;;;;5.37;1.63;;;20.00;99.90;;;;;;5037217;28;20180;-68
2023/08/02 08:59:15;;;;;;;1.97;1.30;;;20.30;99.90;;;;;;5035805;28;20863;-70
2023/08/02 09:01:42;;;;;;;2.90;1.50;;;20.20;99.90;;;;;;5038411;28;20274;-70
2023/08/02 09:04:08;;;;;;;4.00;1.73;;;20.30;99.90;;;;;;5032618;28;20198;-70
2023/08/02 09:06:34;;;;;;;1.50;1.30;;;20.40;99.90;;;;;;5033487;28;20690;-65
2023/08/02 09:09:00;;;;;;;8.77;1.87;;;20.50;99.90;;;;;;5034923;28;20215;-71
2023/08/02 09:11:25;;;;;;;4.70;1.70;;;20.60;99.90;;;;;;5043070;28;20220;-67
2023/08/02 09:14:14;;;;;;;3.70;1.20;;;20.70;99.90;;;;;;5037310;28;20216;-69
2023/08/02 09:17:00;;;;;;;4.27;1.53;;;20.80;99.90;;;;;;5039893;28;20193;-60
2023/08/02 09:19:28;;;;;;;4.73;1.60;;;20.90;99.90;;;;;;5034398;28;20216;-67
2023/08/02 09:22:14;;;;;;;2.60;1.50;;;21.10;99.90;;;;;;5039656;28;20568;-60
2023/08/02 09:24:42;;;;;;;5.10;1.30;;;21.20;99.90;;;;;;5042215;28;20653;-60
2023/08/02 09:27:17;;;;;;;3.67;1.43;;;21.40;99.90;;;;;;5028908;28;20295;-60
2023/08/02 09:29:52;;;;;;;2.40;1.13;;;21.50;99.90;;;;;;5036226;28;20212;-72
2023/08/02 09:32:21;;;;;;;1.87;1.20;;;21.50;99.90;;;;;;5038075;28;20221;-61
2023/08/02 09:34:52;;;;;;;0.97;0.97;;;21.40;99.70;;;;;;5043110;28;20190;-73
2023/08/02 09:37:32;;;;;;;3.03;1.30;;;21.50;99.70;;;;;;5038370;28;20264;-62
2023/08/02 09:39:58;;;;;;;1.90;1.13;;;21.50;99.50;;;;;;5041377;28;20182;-72
2023/08/02 09:42:28;;;;;;;1.50;1.23;;;21.40;99.90;;;;;;5037752;28;20212;-63
2023/08/02 09:44:56;;;;;;;4.30;1.37;;;21.40;99.90;;;;;;5034930;28;20641;-73
2023/08/02 09:47:23;;;;;;;3.43;1.53;;;21.50;99.90;;;;;;5032627;28;20259;-63
2023/08/02 09:50:09;;;;;;;1.63;1.53;;;21.60;99.90;;;;;;5039769;28;20183;-74
2023/08/02 09:52:36;;;;;;;1.60;1.43;;;21.60;99.90;;;;;;5038235;28;20211;-72
2023/08/02 09:55:02;;;;;;;4.57;1.60;;;21.70;99.90;;;;;;5040689;28;20243;-63
2023/08/02 09:57:29;;;;;;;3.50;1.43;;;21.60;99.90;;;;;;5038157;28;20205;-62
2023/08/02 10:00:04;;;;;;;2.70;1.57;;;21.60;99.90;;;;;;5040158;28;20173;-67
2023/08/02 10:02:30;;;;;;;3.13;1.50;;;21.60;99.90;;;;;;5042623;28;20208;-67
2023/08/02 10:04:57;;;;;;;2.23;1.20;;;21.60;99.90;;;;;;5042720;28;20771;-72
2023/08/02 10:07:34;;;;;;;5.00;1.57;;;21.60;99.90;;;;;;5040806;28;20312;-69
2023/08/02 10:10:05;;;;;;;3.37;1.60;;;21.60;99.90;;;;;;5040999;28;20180;-62
2023/08/02 10:12:33;;;;;;;2.43;1.53;;;21.70;99.90;;;;;;5039420;28;20310;-61
2023/08/02 10:15:00;;;;;;;2.03;1.53;;;21.80;99.90;;;;;;5040860;28;20184;-65
2023/08/02 10:17:27;;;;;;;5.27;2.10;;;21.80;99.90;;;;;;5033575;28;20702;-64
2023/08/02 10:19:52;;;;;;;6.37;2.60;;;22.00;99.90;;;;;;5036364;28;20212;-69
2023/08/02 10:22:18;;;;;;;4.57;1.70;;;22.20;99.90;;;;;;5037660;28;20263;-68
2023/08/02 10:24:46;;;;;;;2.80;1.63;;;22.30;99.90;;;;;;5029005;28;20771;-68
2023/08/02 10:27:12;;;;;;;1.67;1.40;;;22.40;99.90;;;;;;4907184;22;20624;-68
2023/08/02 10:29:39;;;;;;;1.47;1.23;;;22.60;99.90;;;;;;5036824;28;20253;-68
2023/08/02 10:32:15;;;;;;;2.73;1.57;;;22.60;99.90;;;;;;5041667;28;20230;-69
2023/08/02 10:34:41;;;;;;;4.90;1.60;;;22.70;99.90;;;;;;5041966;28;20277;-69
2023/08/02 10:37:08;;;;;;;1.87;1.37;;;22.60;99.90;;;;;;5043400;28;20284;-68
2023/08/02 10:40:03;;;;;;;2.83;1.53;;;22.50;99.90;;;;;;5041694;28;20198;-67
2023/08/02 10:42:29;;;;;;;1.70;1.20;;;22.70;99.90;;;;;;5033938;28;20203;-62
2023/08/02 10:44:55;;;;;;;2.73;1.40;;;22.70;99.90;;;;;;5037927;28;20198;-62
2023/08/02 10:47:27;;;;;;;1.00;1.00;;;22.80;99.90;;;;;;5043380;28;20196;-70
2023/08/02 10:49:53;;;;;;;2.17;1.73;;;22.90;99.90;;;;;;5040043;28;20224;-69
2023/08/02 10:52:27;;;;;;;1.63;1.13;;;22.90;99.90;;;;;;5033545;28;20213;-70
2023/08/02 10:55:11;;;;;;;1.93;1.40;;;22.80;99.90;;;;;;5045264;28;20675;-68
2023/08/02 10:57:39;;;;;;;1.27;1.17;;;22.70;99.90;;;;;;5047022;28;20197;-68
2023/08/02 11:00:16;;;;;;;1.70;1.60;;;22.70;99.90;;;;;;5047301;28;20656;-68
2023/08/02 11:02:49;;;;;;;2.17;1.60;;;22.80;99.90;;;;;;5047217;28;20285;-68
2023/08/02 11:05:34;;;;;;;2.20;1.50;;;22.80;99.90;;;;;;5038229;28;20204;-68
2023/08/02 11:08:00;;;;;;;1.60;1.47;;;22.80;99.90;;;;;;5039515;28;20344;-67
2023/08/02 11:10:26;;;;;;;5.03;1.67;;;22.50;99.90;;;;;;5042717;28;20308;-67
2023/08/02 11:12:53;;;;;;;4.13;1.93;;;22.50;99.90;;;;;;5031449;28;20203;-68
2023/08/02 11:15:18;;;;;;;4.23;1.50;;;22.70;99.90;;;;;;5040859;28;20231;-68
2023/08/02 11:17:44;;;;;;;9.20;1.83;;;22.60;99.90;;;;;;5038905;28;20214;-68
2023/08/02 11:20:10;;;;;;;1.83;1.43;;;22.50;99.90;;;;;;5040807;28;20197;-68
2023/08/02 11:22:36;;;;;;;2.00;1.80;;;22.60;99.90;;;;;;5041859;28;20201;-68
2023/08/02 11:25:03;;;;;;;2.23;2.03;;;22.40;99.90;;;;;;5036555;28;20594;-68
2023/08/02 11:27:28;;;;;;;3.47;1.80;;;22.40;99.90;;;;;;5036382;28;21978;-68
2023/08/02 11:30:00;;;;;;;3.33;2.33;;;22.40;99.90;;;;;;5038086;28;20958;-61
2023/08/02 11:32:26;;;;;;;4.90;1.90;;;22.40;99.90;;;;;;5039175;28;20222;-61
2023/08/02 11:34:52;;;;;;;4.33;2.33;;;22.40;99.90;;;;;;5039122;28;20247;-62
2023/08/02 11:37:19;;;;;;;2.90;2.00;;;22.40;99.90;;;;;;5040164;28;20201;-69
2023/08/02 11:39:58;;;;;;;1.67;1.50;;;22.40;99.90;;;;;;5038626;28;20206;-69
2023/08/02 11:42:25;;;;;;;3.07;1.83;;;22.40;99.90;;;;;;5037701;28;20243;-67
2023/08/02 11:44:51;;;;;;;2.30;2.10;;;22.50;99.90;;;;;;5037666;28;20207;-69
2023/08/02 11:47:17;;;;;;;2.90;1.80;;;22.40;99.90;;;;;;5038847;28;20195;-67
2023/08/02 11:49:51;;;;;;;2.90;2.20;;;22.40;99.90;;;;;;5033227;28;20695;-61
2023/08/02 11:52:31;;;;;;;5.03;2.10;;;22.50;99.90;;;;;;5033322;28;20217;-61
2023/08/02 11:54:57;;;;;;;3.70;2.13;;;22.60;99.90;;;;;;5039860;28;20259;-61
2023/08/02 11:57:24;;;;;;;4.10;2.30;;;22.60;99.90;;;;;;5039756;28;20201;-60
2023/08/02 11:59:52;;;;;;;2.63;2.43;;;22.80;99.90;;;;;;5038048;28;20611;-66
2023/08/02 12:02:26;;;;;;;2.70;2.17;;;23.00;99.90;;;;;;5039207;28;20197;-68
2023/08/02 12:04:52;;;;;;;3.60;2.43;;;23.00;99.90;;;;;;5020832;28;20600;-69
2023/08/02 12:07:25;;;;;;;2.73;1.83;;;23.00;99.90;;;;;;5039261;28;20676;-71
2023/08/02 12:09:51;;;;;;;3.17;2.37;;;23.00;99.90;;;;;;5039532;28;20572;-73
2023/08/02 12:12:17;;;;;;;5.60;3.80;;;23.00;99.90;;;;;;5039785;28;20231;-60
2023/08/02 12:14:42;;;;;;;2.13;1.93;;;23.10;99.90;;;;;;5035773;28;20658;-69
2023/08/02 12:17:22;;;;;;;3.30;2.20;;;23.00;99.90;;;;;;5040791;28;20256;-63
2023/08/02 12:19:48;;;;;;;2.17;1.97;;;23.00;99.90;;;;;;5038712;28;20914;-74
2023/08/02 12:22:15;;;;;;;2.00;1.90;;;23.00;99.90;;;;;;5041239;28;20219;-67
2023/08/02 12:24:41;;;;;;;2.90;2.17;;;23.00;99.90;;;;;;5037705;28;20207;-67
2023/08/02 12:27:15;;;;;;;3.83;2.40;;;23.00;99.90;;;;;;5025644;28;20190;-68
2023/08/02 12:29:42;;;;;;;4.17;2.20;;;22.90;99.90;;;;;;5035614;28;20315;-67
2023/08/02 12:32:09;;;;;;;2.20;2.00;;;23.00;99.90;;;;;;5039154;28;20767;-66
2023/08/02 12:34:36;;;;;;;4.30;2.07;;;23.00;99.90;;;;;;5038846;28;20225;-66
2023/08/02 12:37:02;;;;;;;3.80;2.77;;;23.00;99.90;;;;;;5039922;28;20182;-66
2023/08/02 12:39:28;;;;;;;2.70;2.20;;;23.00;99.90;;;;;;5038495;28;20874;-67
2023/08/02 12:41:53;;;;;;;4.13;2.57;;;22.90;99.90;;;;;;5032121;28;20674;-64
2023/08/02 12:44:19;;;;;;;2.57;2.20;;;22.90;99.90;;;;;;5029837;28;20252;-64